Time;durP1;ratioP1;P1;durP2;ratioP2;P2;SDS_P1;SDS_P2;PMS_P1;PMS_P2;Temp;Humidity;BMP_temperature;BMP_pressure;BME280_temperature;BME280_humidity;BME280_pressure;Samples;Min_cycle;Max_cycle;Signal;HPM_P1;HPM_P2
2023/12/21 00:02:14;;;;;;;0.45;0.22;;;;;;;4.07;100.00;97022.44;5004315;28;20052;-58
2023/12/21 00:04:40;;;;;;;0.30;0.30;;;;;;;3.93;100.00;97014.50;5002485;28;20042;-59
2023/12/21 00:07:07;;;;;;;0.60;0.30;;;;;;;3.88;100.00;97004.44;5002685;28;20046;-59
2023/12/21 00:09:33;;;;;;;0.20;0.20;;;;;;;3.97;100.00;97012.22;5001375;28;20077;-58
2023/12/21 00:12:00;;;;;;;2.28;0.40;;;;;;;3.97;100.00;97001.50;5001963;28;20048;-58
2023/12/21 00:14:30;;;;;;;0.63;0.40;;;;;;;3.98;100.00;96997.78;5003491;28;20552;-58
2023/12/21 00:16:57;;;;;;;0.43;0.30;;;;;;;3.96;100.00;96999.84;4999317;28;20069;-57
2023/12/21 00:19:24;;;;;;;1.73;0.40;;;;;;;4.02;100.00;96994.44;4999113;28;20038;-59
2023/12/21 00:21:50;;;;;;;1.35;0.30;;;;;;;4.00;100.00;96999.22;4996433;28;20046;-58
2023/12/21 00:24:17;;;;;;;0.20;0.20;;;;;;;3.98;100.00;96997.78;5000335;28;20444;-57
2023/12/21 00:26:43;;;;;;;0.40;0.30;;;;;;;4.00;100.00;96996.53;4997494;28;20477;-58
2023/12/21 00:29:10;;;;;;;0.13;0.13;;;;;;;4.00;100.00;96999.22;5000233;28;20072;-58
2023/12/21 00:31:37;;;;;;;0.85;0.30;;;;;;;4.06;100.00;96999.38;5002989;28;20033;-57
2023/12/21 00:34:03;;;;;;;0.47;0.20;;;;;;;4.00;100.00;96988.50;5001911;28;20615;-58
2023/12/21 00:36:30;;;;;;;0.88;0.28;;;;;;;3.99;100.00;96996.75;5004823;28;20029;-58
2023/12/21 00:38:56;;;;;;;0.20;0.20;;;;;;;4.00;100.00;96996.53;4998442;28;20045;-59
2023/12/21 00:41:23;;;;;;;0.20;0.20;;;;;;;3.92;100.00;96988.78;5001346;28;20104;-58
2023/12/21 00:43:50;;;;;;;0.65;0.30;;;;;;;3.89;100.00;96971.28;5002543;28;20034;-56
2023/12/21 00:46:16;;;;;;;0.35;0.20;;;;;;;3.94;100.00;96972.47;4996883;28;21952;-57
2023/12/21 00:48:43;;;;;;;0.40;0.20;;;;;;;3.87;100.00;96978.69;5003306;28;20066;-57
2023/12/21 00:51:10;;;;;;;0.30;0.30;;;;;;;3.90;100.00;96982.78;4995732;28;20046;-58
2023/12/21 00:53:36;;;;;;;0.63;0.30;;;;;;;3.89;100.00;96984.66;5002906;28;20072;-58
2023/12/21 00:56:03;;;;;;;0.30;0.25;;;;;;;3.84;100.00;96972.97;5000661;28;20053;-58
2023/12/21 00:58:30;;;;;;;0.82;0.30;;;;;;;3.90;100.00;96969.41;5002747;28;20061;-59
2023/12/21 01:00:56;;;;;;;0.45;0.30;;;;;;;3.82;100.00;96970.50;5001901;28;20553;-58
2023/12/21 01:03:23;;;;;;;0.45;0.25;;;;;;;3.86;100.00;96962.84;4996113;28;20068;-59
2023/12/21 01:05:50;;;;;;;0.52;0.40;;;;;;;3.86;100.00;96954.81;5000848;28;20058;-57
2023/12/21 01:08:17;;;;;;;0.95;0.32;;;;;;;3.85;100.00;96958.53;4999335;28;20069;-59
2023/12/21 01:10:43;;;;;;;0.65;0.30;;;;;;;3.80;100.00;96947.66;5001653;28;20056;-59
2023/12/21 01:13:10;;;;;;;0.20;0.20;;;;;;;3.82;100.00;96949.09;5001969;28;20189;-57
2023/12/21 01:15:36;;;;;;;0.13;0.13;;;;;;;3.96;100.00;96943.59;5002091;28;20663;-58
2023/12/21 01:18:03;;;;;;;0.90;0.20;;;;;;;3.88;100.00;96940.16;5001527;28;20053;-58
2023/12/21 01:20:30;;;;;;;0.25;0.20;;;;;;;3.90;100.00;96932.72;5001124;28;20034;-58
2023/12/21 01:22:56;;;;;;;0.30;0.17;;;;;;;3.79;100.00;96930.75;5000455;28;20042;-58
2023/12/21 01:25:23;;;;;;;0.30;0.17;;;;;;;3.87;100.00;96929.69;4996630;28;20042;-57
2023/12/21 01:27:49;;;;;;;0.43;0.30;;;;;;;3.94;100.00;96932.31;5000232;28;20116;-59
2023/12/21 01:30:16;;;;;;;0.65;0.30;;;;;;;3.93;100.00;96925.28;5002317;28;20042;-58
2023/12/21 01:32:44;;;;;;;0.47;0.30;;;;;;;3.86;100.00;96923.50;5001875;28;20050;-58
2023/12/21 01:35:10;;;;;;;0.40;0.30;;;;;;;3.90;100.00;96926.53;4999848;28;20127;-59
2023/12/21 01:37:37;;;;;;;0.20;0.20;;;;;;;3.88;100.00;96923.28;4999614;28;20053;-59
2023/12/21 01:40:05;;;;;;;0.22;0.20;;;;;;;3.93;100.00;96919.94;4998551;28;20085;-59
2023/12/21 01:42:31;;;;;;;0.20;0.20;;;;;;;3.89;100.00;96919.56;5001240;28;20045;-58
2023/12/21 01:44:58;;;;;;;0.20;0.20;;;;;;;3.92;100.00;96929.84;4999471;28;20041;-56
2023/12/21 01:47:24;;;;;;;0.98;0.17;;;;;;;3.86;100.00;96922.66;4997080;28;20042;-57
2023/12/21 01:49:51;;;;;;;0.20;0.20;;;;;;;3.87;100.00;96910.94;4996342;28;20046;-58
2023/12/21 01:52:19;;;;;;;0.60;0.30;;;;;;;3.77;100.00;96885.44;5005177;28;20154;-59
2023/12/21 01:54:45;;;;;;;0.47;0.38;;;;;;;3.76;100.00;96893.72;5003349;28;20045;-58
2023/12/21 01:57:13;;;;;;;0.30;0.20;;;;;;;3.75;100.00;96897.44;5002235;28;20041;-57
2023/12/21 01:59:40;;;;;;;0.20;0.17;;;;;;;3.82;100.00;96887.47;4985524;28;20136;-58
2023/12/21 02:02:07;;;;;;;0.47;0.20;;;;;;;3.77;100.00;96882.78;5005459;28;20041;-58
2023/12/21 02:04:33;;;;;;;0.32;0.22;;;;;;;3.75;100.00;96884.88;5006929;28;20042;-58
2023/12/21 02:07:00;;;;;;;0.25;0.10;;;;;;;3.83;100.00;96882.97;5003873;28;20038;-58
2023/12/21 02:09:27;;;;;;;0.10;0.10;;;;;;;3.89;100.00;96882.88;4997328;28;20037;-58
2023/12/21 02:11:54;;;;;;;0.38;0.17;;;;;;;3.96;100.00;96890.84;5003985;28;20049;-59
2023/12/21 02:14:21;;;;;;;0.35;0.20;;;;;;;3.90;100.00;96883.69;4995480;28;20034;-58
2023/12/21 02:16:53;;;;;;;0.17;0.10;;;;;;;3.82;100.00;96868.72;5005317;28;20042;-59
2023/12/21 02:19:20;;;;;;;1.02;0.30;;;;;;;3.84;100.00;96865.84;5002739;28;20048;-59
2023/12/21 02:21:49;;;;;;;0.90;0.20;;;;;;;3.85;100.00;96862.94;5005756;28;20865;-57
2023/12/21 02:24:17;;;;;;;0.25;0.25;;;;;;;3.81;100.00;96856.38;5005684;28;20033;-57
2023/12/21 02:26:44;;;;;;;0.85;0.25;;;;;;;3.79;100.00;96854.97;5007265;28;20116;-58
2023/12/21 02:29:10;;;;;;;0.20;0.20;;;;;;;3.83;100.00;96866.88;5003618;28;20064;-59
2023/12/21 02:31:38;;;;;;;0.10;0.10;;;;;;;3.81;100.00;96843.00;5007017;28;20042;-58
2023/12/21 02:34:08;;;;;;;0.73;0.20;;;;;;;3.80;100.00;96845.91;5004766;28;20493;-58
2023/12/21 02:36:35;;;;;;;0.40;0.20;;;;;;;3.83;100.00;96845.47;5006668;28;20037;-59
2023/12/21 02:39:01;;;;;;;0.10;0.10;;;;;;;3.73;100.00;96844.09;5004718;28;20120;-59
2023/12/21 02:41:28;;;;;;;0.75;0.28;;;;;;;3.76;100.00;96835.63;5001203;28;20066;-57
2023/12/21 02:43:55;;;;;;;0.30;0.30;;;;;;;3.80;100.00;96840.53;5002335;28;20049;-59
2023/12/21 02:46:24;;;;;;;0.10;0.10;;;;;;;3.80;100.00;96835.19;5002607;28;20038;-58
2023/12/21 02:48:51;;;;;;;0.10;0.10;;;;;;;3.74;100.00;96823.50;5005713;28;20058;-59
2023/12/21 02:51:18;;;;;;;0.20;0.20;;;;;;;3.71;100.00;96818.56;5005741;28;20092;-58
2023/12/21 02:53:45;;;;;;;0.30;0.30;;;;;;;3.63;100.00;96817.00;5001024;28;20072;-59
2023/12/21 02:56:11;;;;;;;0.43;0.20;;;;;;;3.62;100.00;96802.00;5004996;28;20041;-57
2023/12/21 02:58:39;;;;;;;0.30;0.30;;;;;;;3.68;100.00;96787.72;5004736;28;20761;-58
2023/12/21 03:01:06;;;;;;;0.30;0.20;;;;;;;3.68;100.00;96792.25;4997840;28;20054;-58
2023/12/21 03:03:33;;;;;;;1.08;0.15;;;;;;;3.67;100.00;96772.69;5005865;28;20062;-58
2023/12/21 03:06:00;;;;;;;0.32;0.25;;;;;;;3.71;100.00;96754.31;5004200;28;20630;-57
2023/12/21 03:08:26;;;;;;;0.52;0.15;;;;;;;3.60;100.00;96767.41;5005375;28;20644;-58
2023/12/21 03:10:53;;;;;;;0.20;0.15;;;;;;;3.65;100.00;96769.44;4998017;28;20038;-58
2023/12/21 03:13:19;;;;;;;0.20;0.20;;;;;;;3.75;100.00;96768.88;5004583;28;20064;-59
2023/12/21 03:15:46;;;;;;;0.60;0.20;;;;;;;3.66;100.00;96767.56;5004741;28;20042;-59
2023/12/21 03:18:12;;;;;;;0.30;0.30;;;;;;;3.63;100.00;96766.13;5004645;28;20034;-58
2023/12/21 03:20:39;;;;;;;0.20;0.20;;;;;;;3.55;100.00;96767.25;5003971;28;20081;-58
2023/12/21 03:23:05;;;;;;;0.60;0.30;;;;;;;3.56;100.00;96765.38;5003109;28;20049;-59
2023/12/21 03:25:32;;;;;;;0.75;0.20;;;;;;;3.61;100.00;96754.84;5002058;28;20042;-58
2023/12/21 03:27:59;;;;;;;0.20;0.17;;;;;;;3.68;100.00;96752.09;5004668;28;20045;-58
2023/12/21 03:30:26;;;;;;;0.35;0.20;;;;;;;3.70;100.00;96761.53;4998361;28;20061;-57
2023/12/21 03:32:53;;;;;;;0.70;0.10;;;;;;;3.66;100.00;96757.66;5004882;28;20042;-58
2023/12/21 03:35:20;;;;;;;0.20;0.20;;;;;;;3.63;100.00;96739.38;5003365;28;20456;-58
2023/12/21 03:37:46;;;;;;;0.35;0.20;;;;;;;3.64;100.00;96743.69;5003460;28;20048;-57
2023/12/21 03:40:13;;;;;;;0.20;0.20;;;;;;;3.63;100.00;96739.38;5001745;28;20485;-58
2023/12/21 03:42:39;;;;;;;0.40;0.20;;;;;;;3.67;100.00;96735.22;5005139;28;20041;-59
2023/12/21 03:45:06;;;;;;;0.68;0.30;;;;;;;3.67;100.00;96732.53;5004630;28;20038;-58
2023/12/21 03:47:33;;;;;;;1.27;0.22;;;;;;;3.67;100.00;96743.25;4998026;28;20057;-57
2023/12/21 03:49:59;;;;;;;0.57;0.28;;;;;;;3.66;100.00;96757.66;5004336;28;20042;-57
2023/12/21 03:52:27;;;;;;;0.13;0.13;;;;;;;3.70;100.00;96755.34;5001509;28;20133;-58
2023/12/21 03:54:54;;;;;;;0.30;0.30;;;;;;;3.72;100.00;96742.56;5002699;28;20374;-58
2023/12/21 03:57:20;;;;;;;0.45;0.20;;;;;;;3.72;100.00;96727.31;4999931;28;20132;-57
2023/12/21 03:59:47;;;;;;;0.45;0.22;;;;;;;3.70;100.00;96723.22;5002696;28;20658;-58
2023/12/21 04:02:13;;;;;;;0.35;0.10;;;;;;;3.68;100.00;96718.09;5004347;28;20353;-58
2023/12/21 04:04:40;;;;;;;0.20;0.20;;;;;;;3.66;100.00;96712.16;5003035;28;20577;-58
2023/12/21 04:07:06;;;;;;;0.20;0.20;;;;;;;3.68;100.00;96731.47;5002551;28;20048;-58
2023/12/21 04:09:33;;;;;;;0.17;0.17;;;;;;;3.68;100.00;96723.44;5003272;28;20061;-57
2023/12/21 04:12:00;;;;;;;0.28;0.20;;;;;;;3.74;100.00;96708.34;5001590;28;20100;-58
2023/12/21 04:14:26;;;;;;;0.88;0.40;;;;;;;3.75;100.00;96700.09;5001320;28;20042;-59
2023/12/21 04:16:53;;;;;;;0.20;0.20;;;;;;;3.80;100.00;96706.63;5003276;28;20050;-58
2023/12/21 04:19:19;;;;;;;0.30;0.20;;;;;;;3.88;100.00;96703.66;5004100;28;20402;-58
2023/12/21 04:21:46;;;;;;;0.25;0.15;;;;;;;3.83;100.00;96704.31;4986536;28;20548;-58
2023/12/21 04:24:13;;;;;;;0.10;0.10;;;;;;;3.77;100.00;96703.34;4999270;28;20559;-58
2023/12/21 04:26:39;;;;;;;0.38;0.20;;;;;;;3.76;100.00;96690.22;5001153;28;20041;-59
2023/12/21 04:29:06;;;;;;;1.45;0.28;;;;;;;3.77;100.00;96689.97;5002853;28;20571;-59
2023/12/21 04:31:33;;;;;;;0.28;0.20;;;;;;;3.76;100.00;96682.19;5004521;28;20052;-58
2023/12/21 04:33:59;;;;;;;1.38;0.30;;;;;;;3.81;100.00;96676.97;5002484;28;20044;-59
2023/12/21 04:36:27;;;;;;;0.38;0.20;;;;;;;3.80;100.00;96669.16;4997196;28;20045;-59
2023/12/21 04:38:55;;;;;;;3.13;0.43;;;;;;;3.80;100.00;96666.47;5003639;28;20522;-57
2023/12/21 04:41:22;;;;;;;0.68;0.30;;;;;;;3.80;100.00;96666.47;5002177;28;20046;-58
2023/12/21 04:43:49;;;;;;;1.85;0.40;;;;;;;3.84;100.00;96654.25;5001019;28;20045;-59
2023/12/21 04:46:17;;;;;;;0.52;0.20;;;;;;;3.87;100.00;96657.28;5000928;28;20054;-59
2023/12/21 04:48:44;;;;;;;0.50;0.22;;;;;;;3.92;100.00;96656.63;4995434;28;20046;-57
2023/12/21 04:51:17;;;;;;;1.05;0.50;;;;;;;3.91;100.00;96657.69;4999896;28;20121;-59
2023/12/21 04:53:44;;;;;;;0.90;0.40;;;;;;;3.98;100.00;96663.75;5003308;28;20493;-57
2023/12/21 04:56:10;;;;;;;0.60;0.28;;;;;;;3.97;100.00;96643.38;5001633;28;20042;-58
2023/12/21 04:58:38;;;;;;;0.80;0.32;;;;;;;4.00;100.00;96648.28;4999027;28;20125;-59
2023/12/21 05:01:05;;;;;;;0.32;0.20;;;;;;;4.02;100.00;96631.97;5000863;28;20048;-59
2023/12/21 05:03:32;;;;;;;0.20;0.15;;;;;;;4.03;100.00;96629.03;5003951;28;20045;-57
2023/12/21 05:05:59;;;;;;;0.77;0.45;;;;;;;4.09;100.00;96629.19;5002970;28;20099;-59
2023/12/21 05:08:26;;;;;;;0.40;0.20;;;;;;;4.19;100.00;96625.94;5000630;28;20145;-56
2023/12/21 05:10:52;;;;;;;0.30;0.20;;;;;;;4.21;100.00;96629.22;4997670;28;20057;-58
2023/12/21 05:13:19;;;;;;;0.93;0.25;;;;;;;4.22;100.00;96636.22;4995236;28;20045;-57
2023/12/21 05:15:45;;;;;;;1.00;0.30;;;;;;;4.09;100.00;96621.16;5003595;28;20048;-58
2023/12/21 05:18:12;;;;;;;0.28;0.20;;;;;;;4.13;100.00;96617.78;5000788;28;20651;-58
2023/12/21 05:20:39;;;;;;;0.40;0.10;;;;;;;4.18;100.00;96625.16;5001647;28;20060;-58
2023/12/21 05:23:05;;;;;;;1.30;0.43;;;;;;;4.15;100.00;96617.56;5000943;28;20053;-58
2023/12/21 05:25:32;;;;;;;0.90;0.35;;;;;;;4.12;100.00;96626.03;5000456;28;20100;-58
2023/12/21 05:27:58;;;;;;;0.43;0.20;;;;;;;4.14;100.00;96614.06;4997400;28;20638;-59
2023/12/21 05:30:25;;;;;;;0.20;0.15;;;;;;;4.09;100.00;96607.78;4985008;28;20132;-58
2023/12/21 05:32:52;;;;;;;0.40;0.40;;;;;;;4.07;100.00;96602.63;4999450;28;20041;-57
2023/12/21 05:35:18;;;;;;;0.25;0.25;;;;;;;4.16;100.00;96609.28;5001894;28;20112;-58
2023/12/21 05:37:45;;;;;;;1.20;0.32;;;;;;;4.08;100.00;96600.75;4999944;28;20351;-59
2023/12/21 05:40:12;;;;;;;0.47;0.20;;;;;;;4.08;100.00;96600.75;5001180;28;20079;-58
2023/12/21 05:42:39;;;;;;;0.20;0.20;;;;;;;4.08;100.00;96606.94;5001437;28;20064;-58
2023/12/21 05:45:06;;;;;;;0.10;0.10;;;;;;;4.10;100.00;96596.00;5001765;28;20038;-58
2023/12/21 05:47:33;;;;;;;0.15;0.15;;;;;;;4.11;100.00;96574.34;5003041;28;20038;-59
2023/12/21 05:49:59;;;;;;;0.90;0.20;;;;;;;4.20;100.00;96579.38;4998864;28;20050;-58
2023/12/21 05:52:26;;;;;;;0.57;0.38;;;;;;;4.14;100.00;96581.09;5001597;28;20052;-57
2023/12/21 05:54:53;;;;;;;1.45;0.30;;;;;;;4.13;100.00;96588.31;5002781;28;20651;-59
2023/12/21 05:57:19;;;;;;;0.25;0.20;;;;;;;4.19;100.00;96585.75;5002828;28;20049;-58
2023/12/21 05:59:46;;;;;;;0.77;0.30;;;;;;;4.25;100.00;96582.16;4999322;28;20043;-59
2023/12/21 06:02:13;;;;;;;0.20;0.20;;;;;;;4.27;100.00;96566.66;4999433;28;20048;-58
2023/12/21 06:04:40;;;;;;;1.23;0.30;;;;;;;4.26;100.00;96559.66;5001795;28;20034;-58
2023/12/21 06:07:06;;;;;;;0.28;0.28;;;;;;;4.26;100.00;96560.50;5001272;28;20124;-59
2023/12/21 06:09:33;;;;;;;1.20;0.20;;;;;;;4.24;100.00;96562.56;5002169;28;20092;-58
2023/12/21 06:11:59;;;;;;;1.80;0.22;;;;;;;4.21;100.00;96567.59;4995841;28;20042;-58
2023/12/21 06:14:26;;;;;;;0.10;0.10;;;;;;;4.20;100.00;96549.91;4998749;28;20061;-59
2023/12/21 06:16:53;;;;;;;0.22;0.20;;;;;;;4.20;100.00;96537.28;5002745;28;20053;-58
2023/12/21 06:19:19;;;;;;;0.68;0.40;;;;;;;4.22;100.00;96529.84;5001367;28;20062;-58
2023/12/21 06:21:46;;;;;;;0.63;0.30;;;;;;;4.18;100.00;96536.72;5001670;28;20116;-59
2023/12/21 06:24:12;;;;;;;0.28;0.28;;;;;;;4.15;100.00;96529.13;5000566;28;20054;-58
2023/12/21 06:26:40;;;;;;;0.20;0.20;;;;;;;4.28;100.00;96499.44;5001494;28;20046;-58
2023/12/21 06:29:07;;;;;;;0.65;0.30;;;;;;;4.29;100.00;96505.63;5000180;28;20046;-59
2023/12/21 06:31:34;;;;;;;0.32;0.20;;;;;;;4.32;100.00;96493.63;5003145;28;20406;-58
2023/12/21 06:34:02;;;;;;;0.20;0.20;;;;;;;4.37;100.00;96488.38;5000301;28;20117;-59
2023/12/21 06:36:29;;;;;;;1.95;0.30;;;;;;;4.28;100.00;96485.22;4997815;28;20053;-58
2023/12/21 06:38:55;;;;;;;0.40;0.30;;;;;;;4.27;100.00;96500.50;5004159;28;20054;-58
2023/12/21 06:41:22;;;;;;;1.13;0.28;;;;;;;4.46;100.00;96497.69;5005300;28;21185;-59
2023/12/21 06:43:48;;;;;;;1.10;0.30;;;;;;;4.52;100.00;96501.28;5004529;28;20038;-58
2023/12/21 06:46:15;;;;;;;1.08;0.20;;;;;;;4.54;100.00;96497.31;5003734;28;20036;-58
2023/12/21 06:48:42;;;;;;;0.20;0.20;;;;;;;4.59;100.00;96501.16;5003150;28;20454;-59
2023/12/21 06:51:09;;;;;;;0.68;0.25;;;;;;;4.64;100.00;96498.63;5003896;28;20104;-58
2023/12/21 06:53:35;;;;;;;0.60;0.40;;;;;;;4.64;100.00;96495.94;5005651;28;20512;-58
2023/12/21 06:56:01;;;;;;;0.20;0.20;;;;;;;4.77;100.00;96493.00;5005412;28;20057;-58
2023/12/21 06:58:48;;;;;;;0.30;0.20;;;;;;;4.81;100.00;96491.47;5001289;28;20137;-60
2023/12/21 07:01:14;;;;;;;0.22;0.13;;;;;;;4.79;100.00;96495.44;5002893;28;20045;-60
2023/12/21 07:03:41;;;;;;;1.15;0.30;;;;;;;4.88;100.00;96485.97;5003120;28;20049;-60
2023/12/21 07:06:10;;;;;;;0.60;0.22;;;;;;;4.79;100.00;96493.56;5002749;28;20096;-60
2023/12/21 07:08:37;;;;;;;0.22;0.10;;;;;;;4.82;100.00;96479.69;5005787;28;20053;-60
2023/12/21 07:11:03;;;;;;;1.83;0.40;;;;;;;4.85;100.00;96482.94;5002624;28;20045;-60
2023/12/21 07:13:30;;;;;;;0.52;0.20;;;;;;;4.80;100.00;96476.41;5005747;28;20041;-60
2023/12/21 07:15:58;;;;;;;0.30;0.20;;;;;;;4.84;100.00;96467.91;4999137;28;20050;-60
2023/12/21 07:18:24;;;;;;;0.10;0.10;;;;;;;4.87;100.00;96445.97;5002685;28;20115;-60
2023/12/21 07:20:51;;;;;;;0.75;0.20;;;;;;;4.85;100.00;96440.00;5005459;28;20607;-59
2023/12/21 07:23:18;;;;;;;0.95;0.30;;;;;;;4.92;100.00;96448.75;5001823;28;20035;-60
2023/12/21 07:25:44;;;;;;;1.38;0.63;;;;;;;4.99;100.00;96453.97;5004615;28;20379;-60
2023/12/21 07:28:11;;;;;;;0.63;0.30;;;;;;;5.03;100.00;96444.41;5002403;28;20155;-60
2023/12/21 07:30:38;;;;;;;1.85;0.90;;;;;;;4.99;100.00;96444.06;4999402;28;20053;-60
2023/12/21 07:33:04;;;;;;;2.60;0.85;;;;;;;4.97;100.00;96429.25;5003054;28;20073;-60
2023/12/21 07:35:32;;;;;;;2.63;1.38;;;;;;;4.89;100.00;96433.13;5003440;28;20042;-59
2023/12/21 07:37:58;;;;;;;2.15;1.02;;;;;;;4.91;100.00;96436.41;5000916;28;20041;-59
2023/12/21 07:40:25;;;;;;;1.73;0.80;;;;;;;4.89;100.00;96436.63;5001764;28;20038;-60
2023/12/21 07:42:51;;;;;;;2.33;0.55;;;;;;;4.94;100.00;96433.25;5001745;28;20050;-59
2023/12/21 07:45:18;;;;;;;2.47;0.65;;;;;;;4.97;100.00;96438.09;5002305;28;20042;-60
2023/12/21 07:47:45;;;;;;;2.78;1.10;;;;;;;4.97;100.00;96437.31;5004077;28;20049;-61
2023/12/21 07:50:11;;;;;;;7.47;2.97;;;;;;;5.01;100.00;96446.50;5000404;28;20085;-61
2023/12/21 07:52:38;;;;;;;0.60;0.32;;;;;;;5.10;100.00;96446.94;5001951;28;20049;-59
2023/12/21 07:55:06;;;;;;;1.38;0.47;;;;;;;5.11;100.00;96433.28;5001008;28;20037;-60
2023/12/21 07:57:33;;;;;;;0.65;0.43;;;;;;;5.10;100.00;96420.94;5001313;28;20038;-59
2023/12/21 07:59:59;;;;;;;0.50;0.40;;;;;;;5.13;100.00;96420.44;5004775;28;20038;-60
2023/12/21 08:02:26;;;;;;;1.90;0.80;;;;;;;5.16;100.00;96421.84;5004032;28;20042;-59
2023/12/21 08:04:52;;;;;;;0.63;0.38;;;;;;;5.30;100.00;96433.06;5002114;28;20038;-60
2023/12/21 08:07:19;;;;;;;1.05;0.50;;;;;;;5.32;100.00;96430.97;5003095;28;20037;-60
2023/12/21 08:09:46;;;;;;;0.63;0.30;;;;;;;5.36;100.00;96432.13;5002484;28;20630;-61
2023/12/21 08:12:15;;;;;;;2.70;0.93;;;;;;;5.38;100.00;96424.63;4996919;28;20553;-59
2023/12/21 08:14:41;;;;;;;2.05;0.60;;;;;;;5.36;100.00;96410.66;5001195;28;20068;-60
2023/12/21 08:17:10;;;;;;;1.45;0.43;;;;;;;5.48;100.00;96413.25;4998931;28;20045;-60
2023/12/21 08:19:37;;;;;;;1.58;0.60;;;;;;;5.45;100.00;96390.38;5000539;28;20045;-61
2023/12/21 08:22:04;;;;;;;2.28;0.47;;;;;;;5.41;100.00;96396.47;4998027;28;20046;-59
2023/12/21 08:24:31;;;;;;;1.90;1.25;;;;;;;5.30;100.00;96390.94;5000851;28;20050;-60
2023/12/21 08:26:58;;;;;;;1.58;0.80;;;;;;;5.33;100.00;96378.91;5000563;28;20073;-60
2023/12/21 08:29:24;;;;;;;1.27;0.55;;;;;;;5.39;100.00;96372.59;4999943;28;20048;-59
2023/12/21 08:31:51;;;;;;;3.97;1.50;;;;;;;5.45;100.00;96368.09;5001365;28;20060;-60
2023/12/21 08:34:18;;;;;;;2.47;0.50;;;;;;;5.55;100.00;96379.00;4999338;28;20049;-61
2023/12/21 08:36:44;;;;;;;0.10;0.10;;;;;;;5.68;100.00;96391.28;5001754;28;20521;-59
2023/12/21 08:39:11;;;;;;;0.65;0.35;;;;;;;5.80;100.00;96388.53;4999182;28;20069;-60
2023/12/21 08:41:37;;;;;;;0.28;0.20;;;;;;;5.83;100.00;96388.00;4998789;28;20046;-60
2023/12/21 08:44:04;;;;;;;0.35;0.30;;;;;;;5.90;100.00;96392.41;5001273;28;20525;-59
2023/12/21 08:46:31;;;;;;;1.08;0.40;;;;;;;5.85;100.00;96393.97;5001492;28;20042;-60
2023/12/21 08:48:57;;;;;;;2.15;1.05;;;;;;;5.69;100.00;96392.94;4996877;28;20080;-60
2023/12/21 08:51:24;;;;;;;1.08;0.50;;;;;;;5.69;100.00;96376.00;4999044;28;20074;-60
2023/12/21 08:53:50;;;;;;;1.90;0.70;;;;;;;5.71;100.00;96376.53;4996109;28;20044;-61
2023/12/21 08:56:17;;;;;;;2.65;0.90;;;;;;;5.72;100.00;96375.50;5000774;28;20077;-60
2023/12/21 08:58:43;;;;;;;1.42;0.85;;;;;;;5.75;100.00;96382.25;5001358;28;20046;-60
2023/12/21 09:01:10;;;;;;;6.28;3.38;;;;;;;5.73;100.00;96379.81;5000395;28;20049;-61
2023/12/21 09:03:37;;;;;;;3.13;1.60;;;;;;;5.82;100.00;96367.59;5000635;28;20046;-61
2023/12/21 09:06:04;;;;;;;1.13;0.45;;;;;;;5.88;100.00;96367.66;4998594;28;20506;-57
2023/12/21 09:08:31;;;;;;;0.55;0.30;;;;;;;6.00;100.00;96363.00;4984031;28;20054;-61
2023/12/21 09:10:57;;;;;;;1.38;0.40;;;;;;;6.03;100.00;96354.47;5000788;28;20057;-59
2023/12/21 09:13:24;;;;;;;0.60;0.30;;;;;;;6.03;100.00;96353.63;5001189;28;20061;-61
2023/12/21 09:15:51;;;;;;;0.35;0.22;;;;;;;6.04;100.00;96339.19;5001263;28;20549;-61
2023/12/21 09:18:18;;;;;;;1.20;0.50;;;;;;;6.02;100.00;96320.59;4998593;28;20034;-61
2023/12/21 09:20:45;;;;;;;0.95;0.30;;;;;;;6.04;100.00;96312.31;5001040;28;20037;-59
2023/12/21 09:23:13;;;;;;;0.40;0.22;;;;;;;6.11;100.00;96318.28;5000672;28;20057;-59
2023/12/21 09:25:39;;;;;;;0.30;0.20;;;;;;;6.24;100.00;96317.13;5000749;28;20037;-61
2023/12/21 09:28:06;;;;;;;0.30;0.20;;;;;;;6.31;100.00;96322.31;5000120;28;20046;-58
2023/12/21 09:30:33;;;;;;;0.22;0.20;;;;;;;6.31;100.00;96312.38;5000010;28;20046;-61
2023/12/21 09:32:59;;;;;;;0.75;0.45;;;;;;;6.40;100.00;96307.34;5000229;28;20045;-61
2023/12/21 09:35:26;;;;;;;3.33;1.30;;;;;;;6.42;100.00;96299.03;4999158;28;20102;-59
2023/12/21 09:37:52;;;;;;;0.60;0.40;;;;;;;6.48;100.00;96303.41;5000598;28;20053;-60
2023/12/21 09:40:19;;;;;;;2.80;1.48;;;;;;;6.49;100.00;96305.06;4993674;28;20045;-60
2023/12/21 09:42:51;;;;;;;1.05;0.30;;;;;;;6.49;100.00;96287.03;4999957;28;20125;-59
2023/12/21 09:45:31;;;;;;;1.55;0.65;;;;;;;6.54;100.00;96277.38;5001370;28;20478;-59
2023/12/21 09:47:58;;;;;;;0.60;0.30;;;;;;;6.53;100.00;96273.91;5001520;28;20721;-61
2023/12/21 09:50:28;;;;;;;0.60;0.20;;;;;;;6.69;100.00;96282.09;4998711;28;20049;-60
2023/12/21 09:52:54;;;;;;;1.73;0.77;;;;;;;6.64;100.00;96267.53;5001314;28;20046;-59
2023/12/21 09:55:23;;;;;;;0.93;0.47;;;;;;;6.70;100.00;96251.44;4997165;28;20568;-60
2023/12/21 09:57:50;;;;;;;2.22;0.90;;;;;;;6.63;100.00;96251.66;4999664;28;20653;-60
2023/12/21 10:00:17;;;;;;;1.88;0.50;;;;;;;6.66;100.00;96271.88;4998281;28;20046;-60
2023/12/21 10:02:44;;;;;;;0.10;0.10;;;;;;;6.73;100.00;96250.94;4996721;28;20056;-60
2023/12/21 10:05:11;;;;;;;0.60;0.22;;;;;;;6.76;100.00;96280.03;4997805;28;20046;-61
2023/12/21 10:07:39;;;;;;;0.20;0.20;;;;;;;6.86;100.00;96295.47;4997330;28;20054;-60
2023/12/21 10:10:06;;;;;;;0.25;0.13;;;;;;;6.93;100.00;96273.72;4998259;28;20124;-60
2023/12/21 10:12:33;;;;;;;0.32;0.25;;;;;;;6.84;100.00;96257.22;5002531;28;20088;-60
2023/12/21 10:15:00;;;;;;;0.10;0.10;;;;;;;6.88;100.00;96237.63;5002239;28;20045;-59
2023/12/21 10:17:26;;;;;;;0.38;0.28;;;;;;;6.93;100.00;96188.41;5003171;28;20037;-59
2023/12/21 10:19:53;;;;;;;0.85;0.30;;;;;;;6.99;100.00;96200.03;5002432;28;20065;-60
2023/12/21 10:22:21;;;;;;;3.72;1.30;;;;;;;6.96;100.00;96190.59;5001312;28;20166;-60
2023/12/21 10:24:50;;;;;;;0.47;0.25;;;;;;;7.00;100.00;96162.09;5002115;28;20108;-61
2023/12/21 10:27:18;;;;;;;4.47;1.77;;;;;;;6.97;100.00;96165.28;5008945;28;20037;-62
2023/12/21 10:29:55;;;;;;;0.20;0.20;;;;;;;7.06;100.00;96162.94;5003390;28;20611;-62
2023/12/21 10:32:22;;;;;;;0.63;0.30;;;;;;;7.15;100.00;96153.31;5001802;28;20043;-61
2023/12/21 10:34:49;;;;;;;1.85;0.70;;;;;;;7.18;100.00;96141.22;5003278;28;20053;-59
2023/12/21 10:37:16;;;;;;;1.30;0.52;;;;;;;7.17;100.00;96126.13;5001915;28;20041;-60
2023/12/21 10:39:43;;;;;;;0.40;0.20;;;;;;;7.23;100.00;96106.22;5000112;28;20049;-61
2023/12/21 10:42:14;;;;;;;0.90;0.28;;;;;;;7.40;100.00;96110.63;5003458;28;20074;-60
2023/12/21 10:44:45;;;;;;;0.25;0.20;;;;;;;7.40;100.00;96076.44;4997722;28;20049;-64
2023/12/21 10:47:12;;;;;;;1.33;0.20;;;;;;;7.45;100.00;96064.06;5000345;28;20069;-62
2023/12/21 10:49:40;;;;;;;0.32;0.20;;;;;;;7.44;100.00;96047.09;5003099;28;20299;-60
2023/12/21 10:52:08;;;;;;;0.10;0.10;;;;;;;7.43;100.00;96050.84;5002815;28;20045;-61
2023/12/21 10:54:36;;;;;;;0.40;0.20;;;;;;;7.51;100.00;96053.03;5002030;28;20444;-64
2023/12/21 10:57:05;;;;;;;0.32;0.15;;;;;;;7.43;100.00;96053.56;5001552;28;20505;-60
2023/12/21 10:59:32;;;;;;;0.20;0.20;;;;;;;7.53;100.00;96044.69;4995558;28;20046;-61
2023/12/21 11:01:59;;;;;;;0.17;0.17;;;;;;;7.50;100.00;96046.03;5003074;28;20042;-61
2023/12/21 11:04:28;;;;;;;0.30;0.13;;;;;;;7.50;100.00;96029.88;4998361;28;20053;-59
2023/12/21 11:06:55;;;;;;;0.17;0.17;;;;;;;7.56;100.00;96017.25;4990334;28;20054;-60
2023/12/21 11:09:22;;;;;;;0.50;0.20;;;;;;;7.60;100.00;96017.50;5000792;28;20136;-60
2023/12/21 11:11:49;;;;;;;1.63;0.17;;;;;;;7.64;100.00;96003.25;5004118;28;20449;-60
2023/12/21 11:14:17;;;;;;;0.30;0.10;;;;;;;7.57;100.00;95997.31;5002263;28;20709;-59
2023/12/21 11:16:54;;;;;;;0.57;0.20;;;;;;;7.60;100.00;95999.47;5004345;28;20092;-60
2023/12/21 11:19:32;;;;;;;0.28;0.10;;;;;;;7.66;100.00;96002.97;4995992;28;20046;-61
2023/12/21 11:22:01;;;;;;;0.00;0.00;;;;;;;7.71;100.00;95996.78;4997403;28;20074;-60
2023/12/21 11:24:27;;;;;;;0.25;0.13;;;;;;;7.70;100.00;95973.63;4980957;28;20038;-62
2023/12/21 11:26:55;;;;;;;0.38;0.20;;;;;;;7.71;100.00;95980.63;4999482;28;20053;-61
2023/12/21 11:29:27;;;;;;;0.32;0.13;;;;;;;7.69;100.00;95962.03;4987949;28;20157;-60
2023/12/21 11:31:56;;;;;;;0.85;0.45;;;;;;;7.75;100.00;95960.16;4982120;28;20054;-59
2023/12/21 11:34:34;;;;;;;0.52;0.20;;;;;;;7.82;100.00;95941.84;4994781;28;20573;-62